<?xml version="1.0" encoding="UTF-8" standalone="yes"?>
<gpx xmlns="http://www.topografix.com/GPX/1/1" creator="www.gps-tour.info" version="1.1" xmlns:xsi="http://www.w3.org/2001/XMLSchema-instance" xsi:schemaLocation="http://www.topografix.com/GPX/1/1 http://www.topografix.com/GPX/1/1/gpx.xsd">
  <metadata>
    <name>Wandlitz-Bernau-Pankeweg-Berlin Pankow</name>
    <author>
      <name>Gottfried Schumacher</name>
    </author>
    <link href="www.gps-tour.info/de/touren/detail.80240.html">
      <text>Wandlitz-Bernau-Pankeweg-Berlin Pankow on www.gps-tour.info</text>
    </link>
    <time>2014-05-25T12:08:43Z</time>
    <bounds minlat="52.571116" minlon="13.4067263" maxlat="52.7659557" maxlon="13.5838616"/>
  </metadata><wpt lat="52.7661193" lon="13.4596359">
    <ele>7.6</ele>
    <name>001</name>
    <sym>Waypoint</sym>
  </wpt><wpt lat="49.0438732" lon="10.8923164">
    <ele>449.8</ele>
    <name>100</name>
    <sym>Waypoint</sym>
  </wpt><wpt lat="49.430456" lon="10.30563">
    <ele>-0.1</ele>
    <name>Altmuehl-Urspr</name>
    <sym>Waypoint</sym>
  </wpt><wpt lat="48.918724" lon="11.860424">
    <ele>-0.1</ele>
    <name>Befreiungshall</name>
    <sym>Waypoint</sym>
  </wpt><wpt lat="49.0365314" lon="11.4711213">
    <ele>0</ele>
    <name>Beilngries</name>
    <sym>Waypoint</sym>
  </wpt><wpt lat="49.034729" lon="11.4752197">
    <ele>0</ele>
    <name>Beilngries 1</name>
    <sym>Waypoint</sym>
  </wpt><wpt lat="48.940689" lon="11.778452">
    <ele>-0.1</ele>
    <name>Blautopfquelle</name>
    <sym>Waypoint</sym>
  </wpt><wpt lat="48.932473" lon="10.971015">
    <ele>-0.1</ele>
    <name>Burg Pappenhei</name>
    <sym>Waypoint</sym>
  </wpt><wpt lat="48.946724" lon="11.404641">
    <ele>-0.1</ele>
    <name>Geografischer</name>
    <sym>Waypoint</sym>
  </wpt><wpt lat="49.1151738" lon="10.7526755">
    <ele>409.2</ele>
    <name>Günzenhausen S</name>
    <sym>Waypoint</sym>
  </wpt><wpt lat="48.956129" lon="10.910404">
    <ele>-0.1</ele>
    <name>Schloss Treuch</name>
    <sym>Waypoint</sym>
  </wpt><wpt lat="52.7665544" lon="13.4593467">
    <ele>49.9</ele>
    <name>Start Ernst-Th</name>
    <sym>Waypoint</sym>
  </wpt><wpt lat="49.3778586" lon="10.1791763">
    <ele>423.1</ele>
    <name>Start Rothenbu</name>
    <sym>Waypoint</sym>
  </wpt><wpt lat="49.4675303" lon="11.0991311">
    <ele>0</ele>
    <name>Wilibaldstrase</name>
    <sym>Waypoint</sym>
  </wpt><wpt lat="49.3778586" lon="10.1791763">
    <ele>423.1</ele>
    <name>Ziel Rothenbur</name>
    <sym>Waypoint</sym>
  </wpt><wpt lat="48.892376" lon="11.018316">
    <ele>-0.1</ele>
    <name>Zwoelf Apostel</name>
    <sym>Waypoint</sym>
  </wpt><trk>
    <name>Wandlitz-Bernau-Pankeweg-Berlin Pankow</name>
    <trkseg><trkpt lat="52.7659557" lon="13.4596858">
        <ele>17.4</ele>
        <time>2014-05-25T12:08:43Z</time>
      </trkpt><trkpt lat="52.7563855" lon="13.472858">
        <ele>23.7</ele>
        <time>2014-05-25T12:14:46Z</time>
      </trkpt><trkpt lat="52.7542448" lon="13.4723282">
        <ele>23.7</ele>
        <time>2014-05-25T12:15:49Z</time>
      </trkpt><trkpt lat="52.7504221" lon="13.4677252">
        <ele>30.9</ele>
        <time>2014-05-25T12:18:07Z</time>
      </trkpt><trkpt lat="52.7466402" lon="13.4632049">
        <ele>34.7</ele>
        <time>2014-05-25T12:20:23Z</time>
      </trkpt><trkpt lat="52.745187" lon="13.467327">
        <ele>38.1</ele>
        <time>2014-05-25T12:21:47Z</time>
      </trkpt><trkpt lat="52.7429929" lon="13.4757717">
        <ele>41.5</ele>
        <time>2014-05-25T12:24:29Z</time>
      </trkpt><trkpt lat="52.7429026" lon="13.476136">
        <ele>41.5</ele>
        <time>2014-05-25T12:24:36Z</time>
      </trkpt><trkpt lat="52.7443495" lon="13.4808581">
        <ele>39.6</ele>
        <time>2014-05-25T12:26:10Z</time>
      </trkpt><trkpt lat="52.7445296" lon="13.481405">
        <ele>39.1</ele>
        <time>2014-05-25T12:26:21Z</time>
      </trkpt><trkpt lat="52.7444968" lon="13.4847939">
        <ele>36.7</ele>
        <time>2014-05-25T12:27:20Z</time>
      </trkpt><trkpt lat="52.7432297" lon="13.4899631">
        <ele>38.6</ele>
        <time>2014-05-25T12:28:59Z</time>
      </trkpt><trkpt lat="52.7420786" lon="13.4921113">
        <ele>43.4</ele>
        <time>2014-05-25T12:29:49Z</time>
      </trkpt><trkpt lat="52.7408952" lon="13.4934671">
        <ele>48.7</ele>
        <time>2014-05-25T12:30:31Z</time>
      </trkpt><trkpt lat="52.7402129" lon="13.4940749">
        <ele>50.6</ele>
        <time>2014-05-25T12:30:54Z</time>
      </trkpt><trkpt lat="52.7398154" lon="13.4946817">
        <ele>51.6</ele>
        <time>2014-05-25T12:31:10Z</time>
      </trkpt><trkpt lat="52.7380622" lon="13.4981455">
        <ele>49.6</ele>
        <time>2014-05-25T12:32:29Z</time>
      </trkpt><trkpt lat="52.7365224" lon="13.5001445">
        <ele>56.4</ele>
        <time>2014-05-25T12:33:27Z</time>
      </trkpt><trkpt lat="52.7358016" lon="13.5013191">
        <ele>54.9</ele>
        <time>2014-05-25T12:33:56Z</time>
      </trkpt><trkpt lat="52.733044" lon="13.5042577">
        <ele>60.7</ele>
        <time>2014-05-25T12:35:32Z</time>
      </trkpt><trkpt lat="52.7300178" lon="13.5077696">
        <ele>57.3</ele>
        <time>2014-05-25T12:37:20Z</time>
      </trkpt><trkpt lat="52.7239726" lon="13.5139816">
        <ele>59.7</ele>
        <time>2014-05-25T12:40:47Z</time>
      </trkpt><trkpt lat="52.7208158" lon="13.5200251">
        <ele>63.6</ele>
        <time>2014-05-25T12:43:08Z</time>
      </trkpt><trkpt lat="52.7175257" lon="13.524752">
        <ele>66.5</ele>
        <time>2014-05-25T12:45:15Z</time>
      </trkpt><trkpt lat="52.716495" lon="13.5261779">
        <ele>66</ele>
        <time>2014-05-25T12:45:55Z</time>
      </trkpt><trkpt lat="52.7146241" lon="13.5296738">
        <ele>66.9</ele>
        <time>2014-05-25T12:47:17Z</time>
      </trkpt><trkpt lat="52.7140045" lon="13.5309398">
        <ele>66</ele>
        <time>2014-05-25T12:47:46Z</time>
      </trkpt><trkpt lat="52.7120868" lon="13.5334504">
        <ele>68.4</ele>
        <time>2014-05-25T12:48:57Z</time>
      </trkpt><trkpt lat="52.7101532" lon="13.5352852">
        <ele>70.3</ele>
        <time>2014-05-25T12:50:02Z</time>
      </trkpt><trkpt lat="52.7035872" lon="13.5411723">
        <ele>67.4</ele>
        <time>2014-05-25T12:53:40Z</time>
      </trkpt><trkpt lat="52.6967832" lon="13.5527215">
        <ele>73.2</ele>
        <time>2014-05-25T12:58:25Z</time>
      </trkpt><trkpt lat="52.6953753" lon="13.5544514">
        <ele>76.1</ele>
        <time>2014-05-25T12:59:16Z</time>
      </trkpt><trkpt lat="52.6923527" lon="13.5568422">
        <ele>74.6</ele>
        <time>2014-05-25T13:00:53Z</time>
      </trkpt><trkpt lat="52.6914157" lon="13.5591526">
        <ele>75.6</ele>
        <time>2014-05-25T13:01:43Z</time>
      </trkpt><trkpt lat="52.6917027" lon="13.5599855">
        <ele>72.7</ele>
        <time>2014-05-25T13:01:59Z</time>
      </trkpt><trkpt lat="52.689925" lon="13.5624533">
        <ele>69.4</ele>
        <time>2014-05-25T13:03:07Z</time>
      </trkpt><trkpt lat="52.6861351" lon="13.5712382">
        <ele>67.9</ele>
        <time>2014-05-25T13:06:18Z</time>
      </trkpt><trkpt lat="52.6845354" lon="13.5762054">
        <ele>71.3</ele>
        <time>2014-05-25T13:07:57Z</time>
      </trkpt><trkpt lat="52.682477" lon="13.5797825">
        <ele>75.1</ele>
        <time>2014-05-25T13:09:24Z</time>
      </trkpt><trkpt lat="52.68101" lon="13.5834068">
        <ele>73.2</ele>
        <time>2014-05-25T13:10:41Z</time>
      </trkpt><trkpt lat="52.6792414" lon="13.5819207">
        <ele>67.4</ele>
        <time>2014-05-25T13:11:39Z</time>
      </trkpt><trkpt lat="52.6735762" lon="13.5838616">
        <ele>64.1</ele>
        <time>2014-05-25T13:14:28Z</time>
      </trkpt><trkpt lat="52.6719955" lon="13.5838286">
        <ele>65.5</ele>
        <time>2014-05-25T13:15:14Z</time>
      </trkpt><trkpt lat="52.6717905" lon="13.5808732">
        <ele>67.4</ele>
        <time>2014-05-25T13:16:07Z</time>
      </trkpt><trkpt lat="52.6697338" lon="13.5739808">
        <ele>63.1</ele>
        <time>2014-05-25T13:18:22Z</time>
      </trkpt><trkpt lat="52.6650748" lon="13.5626812">
        <ele>63.6</ele>
        <time>2014-05-25T13:22:24Z</time>
      </trkpt><trkpt lat="52.6643362" lon="13.5614471">
        <ele>63.6</ele>
        <time>2014-05-25T13:22:55Z</time>
      </trkpt><trkpt lat="52.6628269" lon="13.5602816">
        <ele>63.1</ele>
        <time>2014-05-25T13:23:43Z</time>
      </trkpt><trkpt lat="52.6617591" lon="13.5585778">
        <ele>63.6</ele>
        <time>2014-05-25T13:24:27Z</time>
      </trkpt><trkpt lat="52.6616953" lon="13.5557919">
        <ele>63.1</ele>
        <time>2014-05-25T13:25:16Z</time>
      </trkpt><trkpt lat="52.6628765" lon="13.5554111">
        <ele>63.6</ele>
        <time>2014-05-25T13:25:51Z</time>
      </trkpt><trkpt lat="52.664256" lon="13.5541783">
        <ele>65</ele>
        <time>2014-05-25T13:26:37Z</time>
      </trkpt><trkpt lat="52.6649583" lon="13.5532896">
        <ele>64.1</ele>
        <time>2014-05-25T13:27:03Z</time>
      </trkpt><trkpt lat="52.6635849" lon="13.5474295">
        <ele>64.1</ele>
        <time>2014-05-25T13:28:54Z</time>
      </trkpt><trkpt lat="52.6632702" lon="13.5447679">
        <ele>69.4</ele>
        <time>2014-05-25T13:29:42Z</time>
      </trkpt><trkpt lat="52.6630772" lon="13.5439257">
        <ele>69.4</ele>
        <time>2014-05-25T13:29:58Z</time>
      </trkpt><trkpt lat="52.6620225" lon="13.5391259">
        <ele>62.6</ele>
        <time>2014-05-25T13:31:28Z</time>
      </trkpt><trkpt lat="52.6596648" lon="13.5344154">
        <ele>64.1</ele>
        <time>2014-05-25T13:33:16Z</time>
      </trkpt><trkpt lat="52.6589558" lon="13.5335286">
        <ele>61.7</ele>
        <time>2014-05-25T13:33:42Z</time>
      </trkpt><trkpt lat="52.6588551" lon="13.5328994">
        <ele>62.6</ele>
        <time>2014-05-25T13:33:53Z</time>
      </trkpt><trkpt lat="52.6580715" lon="13.5314872">
        <ele>61.2</ele>
        <time>2014-05-25T13:34:27Z</time>
      </trkpt><trkpt lat="52.656441" lon="13.5341968">
        <ele>61.2</ele>
        <time>2014-05-25T13:35:35Z</time>
      </trkpt><trkpt lat="52.6520551" lon="13.531739">
        <ele>59.3</ele>
        <time>2014-05-25T13:37:50Z</time>
      </trkpt><trkpt lat="52.6518874" lon="13.5316353">
        <ele>58.8</ele>
        <time>2014-05-25T13:37:55Z</time>
      </trkpt><trkpt lat="52.6522225" lon="13.5293801">
        <ele>59.7</ele>
        <time>2014-05-25T13:38:36Z</time>
      </trkpt><trkpt lat="52.6510253" lon="13.5281136">
        <ele>60.2</ele>
        <time>2014-05-25T13:39:17Z</time>
      </trkpt><trkpt lat="52.647838" lon="13.5204332">
        <ele>58.3</ele>
        <time>2014-05-25T13:42:02Z</time>
      </trkpt><trkpt lat="52.6473737" lon="13.5205769">
        <ele>57.3</ele>
        <time>2014-05-25T13:42:16Z</time>
      </trkpt><trkpt lat="52.6465315" lon="13.5221485">
        <ele>56.9</ele>
        <time>2014-05-25T13:42:53Z</time>
      </trkpt><trkpt lat="52.6464118" lon="13.5220016">
        <ele>56.9</ele>
        <time>2014-05-25T13:42:57Z</time>
      </trkpt><trkpt lat="52.6426545" lon="13.5123369">
        <ele>59.3</ele>
        <time>2014-05-25T13:46:20Z</time>
      </trkpt><trkpt lat="52.6438442" lon="13.5108873">
        <ele>55.9</ele>
        <time>2014-05-25T13:47:03Z</time>
      </trkpt><trkpt lat="52.6410703" lon="13.5038255">
        <ele>54.5</ele>
        <time>2014-05-25T13:49:32Z</time>
      </trkpt><trkpt lat="52.6396773" lon="13.5009373">
        <ele>53</ele>
        <time>2014-05-25T13:50:38Z</time>
      </trkpt><trkpt lat="52.6398836" lon="13.4994606">
        <ele>55.4</ele>
        <time>2014-05-25T13:51:04Z</time>
      </trkpt><trkpt lat="52.6396492" lon="13.4993349">
        <ele>54.9</ele>
        <time>2014-05-25T13:51:12Z</time>
      </trkpt><trkpt lat="52.6398066" lon="13.4997689">
        <ele>54</ele>
        <time>2014-05-25T13:51:21Z</time>
      </trkpt><trkpt lat="52.6390678" lon="13.4991379">
        <ele>52.5</ele>
        <time>2014-05-25T13:51:45Z</time>
      </trkpt><trkpt lat="52.6391888" lon="13.4979057">
        <ele>52.5</ele>
        <time>2014-05-25T13:52:07Z</time>
      </trkpt><trkpt lat="52.6388118" lon="13.4967513">
        <ele>52</ele>
        <time>2014-05-25T13:52:30Z</time>
      </trkpt><trkpt lat="52.6383457" lon="13.4960293">
        <ele>52.5</ele>
        <time>2014-05-25T13:52:49Z</time>
      </trkpt><trkpt lat="52.6368628" lon="13.49541">
        <ele>52</ele>
        <time>2014-05-25T13:53:33Z</time>
      </trkpt><trkpt lat="52.6370075" lon="13.4940339">
        <ele>53</ele>
        <time>2014-05-25T13:53:58Z</time>
      </trkpt><trkpt lat="52.6365125" lon="13.4931509">
        <ele>53</ele>
        <time>2014-05-25T13:54:19Z</time>
      </trkpt><trkpt lat="52.6368698" lon="13.4923785">
        <ele>53.5</ele>
        <time>2014-05-25T13:54:36Z</time>
      </trkpt><trkpt lat="52.6272674" lon="13.4816474">
        <ele>53.5</ele>
        <time>2014-05-25T14:00:15Z</time>
      </trkpt><trkpt lat="52.6279764" lon="13.4824186">
        <ele>51.6</ele>
        <time>2014-05-25T14:00:40Z</time>
      </trkpt><trkpt lat="52.6284087" lon="13.4811648">
        <ele>53</ele>
        <time>2014-05-25T14:01:05Z</time>
      </trkpt><trkpt lat="52.6288879" lon="13.4795995">
        <ele>3.5</ele>
        <time>2014-05-25T14:01:36Z</time>
      </trkpt><trkpt lat="52.6290603" lon="13.4791432">
        <ele>34.3</ele>
        <time>2014-05-25T14:01:46Z</time>
      </trkpt><trkpt lat="52.6290651" lon="13.4790861">
        <ele>34.7</ele>
        <time>2014-05-25T14:01:47Z</time>
      </trkpt><trkpt lat="52.6292752" lon="13.4785231">
        <ele>37.6</ele>
        <time>2014-05-25T14:01:58Z</time>
      </trkpt><trkpt lat="52.6298046" lon="13.4771091">
        <ele>39.6</ele>
        <time>2014-05-25T14:02:28Z</time>
      </trkpt><trkpt lat="52.6302922" lon="13.4758638">
        <ele>42.4</ele>
        <time>2014-05-25T14:02:54Z</time>
      </trkpt><trkpt lat="52.632086" lon="13.4709267">
        <ele>46.8</ele>
        <time>2014-05-25T14:04:36Z</time>
      </trkpt><trkpt lat="52.633353" lon="13.4675601">
        <ele>45.3</ele>
        <time>2014-05-25T14:05:46Z</time>
      </trkpt><trkpt lat="52.6313944" lon="13.4652912">
        <ele>46.3</ele>
        <time>2014-05-25T14:06:56Z</time>
      </trkpt><trkpt lat="52.6298999" lon="13.4641233">
        <ele>49.6</ele>
        <time>2014-05-25T14:07:44Z</time>
      </trkpt><trkpt lat="52.6290942" lon="13.4632907">
        <ele>48.2</ele>
        <time>2014-05-25T14:08:12Z</time>
      </trkpt><trkpt lat="52.6284904" lon="13.4625441">
        <ele>45.8</ele>
        <time>2014-05-25T14:08:34Z</time>
      </trkpt><trkpt lat="52.627736" lon="13.4611162">
        <ele>44.8</ele>
        <time>2014-05-25T14:09:07Z</time>
      </trkpt><trkpt lat="52.6277667" lon="13.4616216">
        <ele>43.9</ele>
        <time>2014-05-25T14:09:16Z</time>
      </trkpt><trkpt lat="52.6291315" lon="13.4644088">
        <ele>43.9</ele>
        <time>2014-05-25T14:10:20Z</time>
      </trkpt><trkpt lat="52.6287381" lon="13.4674912">
        <ele>44.8</ele>
        <time>2014-05-25T14:11:15Z</time>
      </trkpt><trkpt lat="52.6254602" lon="13.4720194">
        <ele>43.9</ele>
        <time>2014-05-25T14:13:20Z</time>
      </trkpt><trkpt lat="52.6242734" lon="13.4735718">
        <ele>43.4</ele>
        <time>2014-05-25T14:14:04Z</time>
      </trkpt><trkpt lat="52.6242749" lon="13.4735959">
        <ele>42.9</ele>
        <time>2014-05-25T14:14:05Z</time>
      </trkpt><trkpt lat="52.6231226" lon="13.4707531">
        <ele>42</ele>
        <time>2014-05-25T14:15:05Z</time>
      </trkpt><trkpt lat="52.6218552" lon="13.4687403">
        <ele>42.9</ele>
        <time>2014-05-25T14:15:56Z</time>
      </trkpt><trkpt lat="52.6194444" lon="13.4657145">
        <ele>41.5</ele>
        <time>2014-05-25T14:17:25Z</time>
      </trkpt><trkpt lat="52.6187604" lon="13.4646894">
        <ele>40</ele>
        <time>2014-05-25T14:17:52Z</time>
      </trkpt><trkpt lat="52.6164651" lon="13.4597754">
        <ele>41</ele>
        <time>2014-05-25T14:19:42Z</time>
      </trkpt><trkpt lat="52.6159566" lon="13.4587395">
        <ele>40.5</ele>
        <time>2014-05-25T14:20:05Z</time>
      </trkpt><trkpt lat="52.6131289" lon="13.4539348">
        <ele>42</ele>
        <time>2014-05-25T14:22:04Z</time>
      </trkpt><trkpt lat="52.6129382" lon="13.4541005">
        <ele>42</ele>
        <time>2014-05-25T14:22:10Z</time>
      </trkpt><trkpt lat="52.6126771" lon="13.4538988">
        <ele>41.5</ele>
        <time>2014-05-25T14:22:18Z</time>
      </trkpt><trkpt lat="52.6123922" lon="13.4532048">
        <ele>40.5</ele>
        <time>2014-05-25T14:22:33Z</time>
      </trkpt><trkpt lat="52.6117002" lon="13.4521928">
        <ele>40.5</ele>
        <time>2014-05-25T14:23:00Z</time>
      </trkpt><trkpt lat="52.610067" lon="13.4510939">
        <ele>42.4</ele>
        <time>2014-05-25T14:23:51Z</time>
      </trkpt><trkpt lat="52.6095758" lon="13.4512073">
        <ele>42</ele>
        <time>2014-05-25T14:24:06Z</time>
      </trkpt><trkpt lat="52.608792" lon="13.4528256">
        <ele>41</ele>
        <time>2014-05-25T14:24:43Z</time>
      </trkpt><trkpt lat="52.6084113" lon="13.4526129">
        <ele>41.5</ele>
        <time>2014-05-25T14:24:54Z</time>
      </trkpt><trkpt lat="52.6066094" lon="13.451491">
        <ele>40</ele>
        <time>2014-05-25T14:25:50Z</time>
      </trkpt><trkpt lat="52.6066447" lon="13.4489282">
        <ele>47.7</ele>
        <time>2014-05-25T14:26:36Z</time>
      </trkpt><trkpt lat="52.607086" lon="13.443427">
        <ele>42.9</ele>
        <time>2014-05-25T14:28:14Z</time>
      </trkpt><trkpt lat="52.6043462" lon="13.4432163">
        <ele>44.4</ele>
        <time>2014-05-25T14:29:34Z</time>
      </trkpt><trkpt lat="52.6030277" lon="13.4431102">
        <ele>42.4</ele>
        <time>2014-05-25T14:30:13Z</time>
      </trkpt><trkpt lat="52.6008606" lon="13.4426611">
        <ele>42.9</ele>
        <time>2014-05-25T14:31:16Z</time>
      </trkpt><trkpt lat="52.5998525" lon="13.4422785">
        <ele>42</ele>
        <time>2014-05-25T14:31:46Z</time>
      </trkpt><trkpt lat="52.5964039" lon="13.4401641">
        <ele>40.5</ele>
        <time>2014-05-25T14:33:34Z</time>
      </trkpt><trkpt lat="52.5947824" lon="13.4387347">
        <ele>40</ele>
        <time>2014-05-25T14:34:27Z</time>
      </trkpt><trkpt lat="52.5939486" lon="13.4351826">
        <ele>41.5</ele>
        <time>2014-05-25T14:35:35Z</time>
      </trkpt><trkpt lat="52.5924671" lon="13.4366686">
        <ele>39.6</ele>
        <time>2014-05-25T14:36:25Z</time>
      </trkpt><trkpt lat="52.5918411" lon="13.4384426">
        <ele>40</ele>
        <time>2014-05-25T14:37:02Z</time>
      </trkpt><trkpt lat="52.590925" lon="13.4358723">
        <ele>38.1</ele>
        <time>2014-05-25T14:37:55Z</time>
      </trkpt><trkpt lat="52.5904363" lon="13.4354751">
        <ele>38.6</ele>
        <time>2014-05-25T14:38:10Z</time>
      </trkpt><trkpt lat="52.5900432" lon="13.4348887">
        <ele>39.6</ele>
        <time>2014-05-25T14:38:26Z</time>
      </trkpt><trkpt lat="52.5899794" lon="13.4348194">
        <ele>39.6</ele>
        <time>2014-05-25T14:38:28Z</time>
      </trkpt><trkpt lat="52.58997" lon="13.4337127">
        <ele>38.1</ele>
        <time>2014-05-25T14:38:48Z</time>
      </trkpt><trkpt lat="52.5897117" lon="13.4333939">
        <ele>38.1</ele>
        <time>2014-05-25T14:38:57Z</time>
      </trkpt><trkpt lat="52.588915" lon="13.4337757">
        <ele>38.6</ele>
        <time>2014-05-25T14:39:21Z</time>
      </trkpt><trkpt lat="52.5883726" lon="13.4332963">
        <ele>38.1</ele>
        <time>2014-05-25T14:39:39Z</time>
      </trkpt><trkpt lat="52.58824" lon="13.4315784">
        <ele>38.1</ele>
        <time>2014-05-25T14:40:10Z</time>
      </trkpt><trkpt lat="52.5877584" lon="13.4312766">
        <ele>37.6</ele>
        <time>2014-05-25T14:40:25Z</time>
      </trkpt><trkpt lat="52.5872713" lon="13.4318904">
        <ele>38.1</ele>
        <time>2014-05-25T14:40:43Z</time>
      </trkpt><trkpt lat="52.5867936" lon="13.4316507">
        <ele>38.6</ele>
        <time>2014-05-25T14:40:57Z</time>
      </trkpt><trkpt lat="52.584379" lon="13.4307083">
        <ele>38.1</ele>
        <time>2014-05-25T14:42:10Z</time>
      </trkpt><trkpt lat="52.5833275" lon="13.4301484">
        <ele>37.6</ele>
        <time>2014-05-25T14:42:42Z</time>
      </trkpt><trkpt lat="52.5831691" lon="13.4299459">
        <ele>39.6</ele>
        <time>2014-05-25T14:42:48Z</time>
      </trkpt><trkpt lat="52.5829484" lon="13.4277063">
        <ele>38.6</ele>
        <time>2014-05-25T14:43:28Z</time>
      </trkpt><trkpt lat="52.5815622" lon="13.4211882">
        <ele>38.1</ele>
        <time>2014-05-25T14:45:30Z</time>
      </trkpt><trkpt lat="52.5798787" lon="13.4130199">
        <ele>34.3</ele>
        <time>2014-05-25T14:48:03Z</time>
      </trkpt><trkpt lat="52.5791825" lon="13.4097357">
        <ele>34.3</ele>
        <time>2014-05-25T14:49:05Z</time>
      </trkpt><trkpt lat="52.5789355" lon="13.4092335">
        <ele>34.3</ele>
        <time>2014-05-25T14:49:16Z</time>
      </trkpt><trkpt lat="52.5783535" lon="13.409466">
        <ele>33.8</ele>
        <time>2014-05-25T14:49:34Z</time>
      </trkpt><trkpt lat="52.5778169" lon="13.4093536">
        <ele>33.8</ele>
        <time>2014-05-25T14:49:49Z</time>
      </trkpt><trkpt lat="52.5772272" lon="13.4082987">
        <ele>33.3</ele>
        <time>2014-05-25T14:50:15Z</time>
      </trkpt><trkpt lat="52.5762905" lon="13.407691">
        <ele>33.3</ele>
        <time>2014-05-25T14:50:44Z</time>
      </trkpt><trkpt lat="52.575959" lon="13.4070493">
        <ele>32.8</ele>
        <time>2014-05-25T14:50:59Z</time>
      </trkpt><trkpt lat="52.5754281" lon="13.4067263">
        <ele>34.3</ele>
        <time>2014-05-25T14:51:16Z</time>
      </trkpt><trkpt lat="52.5739161" lon="13.4075695">
        <ele>35.2</ele>
        <time>2014-05-25T14:52:02Z</time>
      </trkpt><trkpt lat="52.5718694" lon="13.4085032">
        <ele>35.2</ele>
        <time>2014-05-25T14:53:04Z</time>
      </trkpt><trkpt lat="52.571116" lon="13.4090136">
        <ele>33.8</ele>
        <time>2014-05-25T14:53:28Z</time>
      </trkpt><trkpt lat="52.5711218" lon="13.4091294">
        <ele>23.2</ele>
        <time>2014-05-25T14:53:30Z</time>
      </trkpt><trkpt lat="52.5711488" lon="13.4090493">
        <ele>32.8</ele>
        <time>2014-05-25T14:53:32Z</time>
      </trkpt><trkpt lat="52.5711369" lon="13.4090431">
        <ele>37.1</ele>
        <time>2014-05-25T14:53:32Z</time>
      </trkpt><trkpt lat="52.5711374" lon="13.4090528">
        <ele>37.1</ele>
        <time>2014-05-25T14:53:32Z</time>
      </trkpt><trkpt lat="52.5711555" lon="13.4090731">
        <ele>36.2</ele>
        <time>2014-05-25T14:53:33Z</time>
      </trkpt></trkseg>
  </trk>
</gpx>